sensor_id;sensor_type;location;lat;lon;timestamp;P1;P4;P2;P0;N10;N4;N25;N1;N05;TS
18453;SPS30;9356;52.202;20.950;2023-12-22T00:00:55;3.49;3.42;3.08;2.51;20.10;20.09;20.01;19.48;15.88;0.64
18453;SPS30;9356;52.202;20.950;2023-12-22T00:02:05;3.69;3.62;3.26;2.66;21.31;21.29;21.20;20.65;16.83;0.63
18453;SPS30;9356;52.202;20.950;2023-12-22T00:03:10;3.79;3.70;3.30;2.64;21.13;21.12;21.02;20.41;16.56;0.65
18453;SPS30;9356;52.202;20.950;2023-12-22T00:04:14;4.29;4.19;3.68;2.89;23.16;23.14;23.01;22.28;17.99;0.65
18453;SPS30;9356;52.202;20.950;2023-12-22T00:05:35;4.08;3.98;3.46;2.66;21.34;21.32;21.19;20.45;16.42;0.67
18453;SPS30;9356;52.202;20.950;2023-12-22T00:06:39;3.96;3.85;3.33;2.53;20.32;20.30;20.18;19.44;15.57;0.68
18453;SPS30;9356;52.202;20.950;2023-12-22T00:07:45;4.10;3.99;3.45;2.63;21.06;21.04;20.91;20.14;16.13;0.67
18453;SPS30;9356;52.202;20.950;2023-12-22T00:08:49;4.23;4.11;3.54;2.68;21.47;21.45;21.32;20.51;16.40;0.67
18453;SPS30;9356;52.202;20.950;2023-12-22T00:09:55;4.45;4.33;3.73;2.83;22.70;22.67;22.53;21.68;17.35;0.66
18453;SPS30;9356;52.202;20.950;2023-12-22T00:11:02;5.07;4.92;4.17;3.07;24.65;24.62;24.45;23.41;18.58;0.70
18453;SPS30;9356;52.202;20.950;2023-12-22T00:12:05;4.37;4.23;3.54;2.54;20.44;20.41;20.25;19.31;15.21;0.72
18453;SPS30;9356;52.202;20.950;2023-12-22T00:13:11;4.93;4.77;3.96;2.79;22.44;22.41;22.22;21.12;16.56;0.73
18453;SPS30;9356;52.202;20.950;2023-12-22T00:14:17;4.69;4.54;3.77;2.67;21.46;21.43;21.26;20.22;15.87;0.73
18453;SPS30;9356;52.202;20.950;2023-12-22T00:15:22;4.63;4.48;3.76;2.71;21.78;21.75;21.58;20.59;16.25;0.72
18453;SPS30;9356;52.202;20.950;2023-12-22T00:16:25;4.84;4.68;3.93;2.83;22.71;22.69;22.51;21.48;16.93;0.72
18453;SPS30;9356;52.202;20.950;2023-12-22T00:17:29;4.92;4.77;4.01;2.91;23.37;23.34;23.16;22.13;17.48;0.71
18453;SPS30;9356;52.202;20.950;2023-12-22T00:18:33;4.48;4.35;3.67;2.67;21.48;21.45;21.29;20.36;16.11;0.71
18453;SPS30;9356;52.202;20.950;2023-12-22T00:19:43;4.58;4.44;3.75;2.73;21.93;21.90;21.74;20.78;16.45;0.69
18453;SPS30;9356;52.202;20.950;2023-12-22T00:20:49;4.25;4.13;3.52;2.61;20.95;20.92;20.78;19.93;15.85;0.68
18453;SPS30;9356;52.202;20.950;2023-12-22T00:21:56;4.49;4.36;3.70;2.74;21.99;21.96;21.81;20.90;16.61;0.69
18453;SPS30;9356;52.202;20.950;2023-12-22T00:23:00;4.47;4.35;3.71;2.76;22.18;22.16;22.01;21.12;16.81;0.70
18453;SPS30;9356;52.202;20.950;2023-12-22T00:24:05;4.54;4.41;3.74;2.75;22.08;22.05;21.90;20.97;16.64;0.70
18453;SPS30;9356;52.202;20.950;2023-12-22T00:25:10;4.69;4.55;3.84;2.80;22.45;22.42;22.26;21.28;16.84;0.70
18453;SPS30;9356;52.202;20.950;2023-12-22T00:26:14;4.89;4.75;4.02;2.95;23.66;23.63;23.46;22.45;17.80;0.69
18453;SPS30;9356;52.202;20.950;2023-12-22T00:27:21;4.29;4.16;3.54;2.63;21.08;21.05;20.91;20.05;15.94;0.68
18453;SPS30;9356;52.202;20.950;2023-12-22T00:28:24;4.27;4.14;3.50;2.57;20.62;20.60;20.45;19.57;15.51;0.69
18453;SPS30;9356;52.202;20.950;2023-12-22T00:29:31;4.52;4.38;3.70;2.70;21.65;21.62;21.46;20.52;16.24;0.70
18453;SPS30;9356;52.202;20.950;2023-12-22T00:30:41;4.92;4.78;4.03;2.94;23.60;23.57;23.40;22.37;17.71;0.70
18453;SPS30;9356;52.202;20.950;2023-12-22T00:31:47;4.18;4.07;3.49;2.63;21.13;21.10;20.97;20.16;16.10;0.67
18453;SPS30;9356;52.202;20.950;2023-12-22T00:32:55;3.91;3.80;3.30;2.53;20.29;20.27;20.15;19.43;15.59;0.68
18453;SPS30;9356;52.202;20.950;2023-12-22T00:34:07;4.41;4.29;3.68;2.78;22.28;22.26;22.11;21.26;16.98;0.69
18453;SPS30;9356;52.202;20.950;2023-12-22T00:35:14;4.49;4.36;3.73;2.79;22.37;22.35;22.20;21.32;16.99;0.69
18453;SPS30;9356;52.202;20.950;2023-12-22T00:36:23;4.65;4.52;3.86;2.89;23.16;23.13;22.98;22.06;17.58;0.69
18453;SPS30;9356;52.202;20.950;2023-12-22T00:37:31;4.64;4.50;3.82;2.83;22.68;22.65;22.49;21.56;17.12;0.71
18453;SPS30;9356;52.202;20.950;2023-12-22T00:38:35;4.51;4.38;3.73;2.77;22.27;22.24;22.09;21.19;16.86;0.69
18453;SPS30;9356;52.202;20.950;2023-12-22T00:39:38;4.84;4.71;4.05;3.06;24.53;24.51;24.35;23.42;18.71;0.69
18453;SPS30;9356;52.202;20.950;2023-12-22T00:40:42;4.79;4.66;4.02;3.04;24.42;24.39;24.24;23.33;18.66;0.68
18453;SPS30;9356;52.202;20.950;2023-12-22T00:41:45;4.45;4.34;3.74;2.84;22.81;22.78;22.64;21.80;17.45;0.68
18453;SPS30;9356;52.202;20.950;2023-12-22T00:42:49;4.16;4.05;3.53;2.73;21.86;21.83;21.71;20.96;16.85;0.67
18453;SPS30;9356;52.202;20.950;2023-12-22T00:43:54;4.35;4.24;3.69;2.85;22.86;22.83;22.70;21.92;17.62;0.67
18453;SPS30;9356;52.202;20.950;2023-12-22T00:45:03;5.45;5.32;4.67;3.65;29.25;29.22;29.07;28.12;22.68;0.67
18453;SPS30;9356;52.202;20.950;2023-12-22T00:46:10;4.59;4.47;3.89;3.00;24.08;24.06;23.92;23.09;18.56;0.68
18453;SPS30;9356;52.202;20.950;2023-12-22T00:47:14;4.24;4.13;3.59;2.75;22.09;22.07;21.94;21.16;16.99;0.68
18453;SPS30;9356;52.202;20.950;2023-12-22T00:48:19;4.45;4.34;3.76;2.88;23.10;23.08;22.94;22.12;17.75;0.67
18453;SPS30;9356;52.202;20.950;2023-12-22T00:49:22;4.49;4.37;3.78;2.88;23.06;23.04;22.90;22.06;17.66;0.67
18453;SPS30;9356;52.202;20.950;2023-12-22T00:50:31;4.52;4.40;3.78;2.86;22.94;22.92;22.77;21.91;17.51;0.67
18453;SPS30;9356;52.202;20.950;2023-12-22T00:51:37;4.94;4.80;4.11;3.09;24.77;24.74;24.58;23.62;18.84;0.69
18453;SPS30;9356;52.202;20.950;2023-12-22T00:52:43;4.53;4.40;3.77;2.83;22.72;22.69;22.54;21.66;17.28;0.69
18453;SPS30;9356;52.202;20.950;2023-12-22T00:53:51;4.58;4.46;3.85;2.94;23.59;23.56;23.42;22.57;18.09;0.68
18453;SPS30;9356;52.202;20.950;2023-12-22T00:54:57;4.52;4.40;3.82;2.93;23.48;23.46;23.32;22.49;18.04;0.68
18453;SPS30;9356;52.202;20.950;2023-12-22T00:56:01;4.41;4.29;3.70;2.82;22.59;22.57;22.43;21.60;17.29;0.68
18453;SPS30;9356;52.202;20.950;2023-12-22T00:57:09;4.52;4.39;3.77;2.83;22.73;22.70;22.56;21.68;17.31;0.68
18453;SPS30;9356;52.202;20.950;2023-12-22T00:58:15;4.53;4.40;3.76;2.81;22.51;22.49;22.34;21.44;17.08;0.69
18453;SPS30;9356;52.202;20.950;2023-12-22T00:59:27;4.68;4.55;3.94;3.00;24.08;24.05;23.91;23.04;18.46;0.69
18453;SPS30;9356;52.202;20.950;2023-12-22T01:00:30;4.71;4.58;3.96;3.01;24.13;24.11;23.96;23.08;18.48;0.69
18453;SPS30;9356;52.202;20.950;2023-12-22T01:01:39;4.83;4.69;4.03;3.03;24.34;24.31;24.16;23.22;18.55;0.70
18453;SPS30;9356;52.202;20.950;2023-12-22T01:02:43;4.78;4.64;3.95;2.92;23.45;23.42;23.26;22.30;17.72;0.70
18453;SPS30;9356;52.202;20.950;2023-12-22T01:03:47;4.67;4.54;3.90;2.93;23.54;23.51;23.36;22.46;17.93;0.68
18453;SPS30;9356;52.202;20.950;2023-12-22T01:04:50;4.58;4.46;3.85;2.94;23.60;23.58;23.44;22.58;18.10;0.67
18453;SPS30;9356;52.202;20.950;2023-12-22T01:05:55;4.07;3.96;3.45;2.66;21.32;21.30;21.18;20.44;16.43;0.66
18453;SPS30;9356;52.202;20.950;2023-12-22T01:07:03;4.67;4.55;3.93;3.00;24.09;24.07;23.92;23.05;18.48;0.67
18453;SPS30;9356;52.202;20.950;2023-12-22T01:08:12;4.62;4.50;3.86;2.90;23.26;23.23;23.08;22.19;17.71;0.69
18453;SPS30;9356;52.202;20.950;2023-12-22T01:09:17;5.41;5.25;4.45;3.26;26.18;26.15;25.96;24.85;19.70;0.71
18453;SPS30;9356;52.202;20.950;2023-12-22T01:10:23;4.96;4.80;4.00;2.84;22.86;22.83;22.64;21.55;16.93;0.72
18453;SPS30;9356;52.202;20.950;2023-12-22T01:11:27;4.92;4.75;3.89;2.68;21.53;21.50;21.30;20.16;15.68;0.73
18453;SPS30;9356;52.202;20.950;2023-12-22T01:12:35;5.50;5.30;4.31;2.93;23.56;23.52;23.30;21.99;17.03;0.74
18453;SPS30;9356;52.202;20.950;2023-12-22T01:13:47;5.38;5.19;4.23;2.89;23.22;23.19;22.97;21.70;16.83;0.73
18453;SPS30;9356;52.202;20.950;2023-12-22T01:14:55;5.69;5.50;4.54;3.17;25.50;25.47;25.24;23.96;18.72;0.73
18453;SPS30;9356;52.202;20.950;2023-12-22T01:16:03;5.23;5.06;4.19;2.95;23.73;23.70;23.50;22.33;17.49;0.72
18453;SPS30;9356;52.202;20.950;2023-12-22T01:17:10;5.42;5.23;4.31;3.00;24.11;24.07;23.86;22.62;17.66;0.73
18453;SPS30;9356;52.202;20.950;2023-12-22T01:18:18;5.52;5.34;4.39;3.06;24.57;24.53;24.31;23.05;17.99;0.73
18453;SPS30;9356;52.202;20.950;2023-12-22T01:19:22;5.21;5.03;4.15;2.89;23.24;23.21;23.00;21.82;17.04;0.74
18453;SPS30;9356;52.202;20.950;2023-12-22T01:20:27;5.16;4.97;4.06;2.77;22.24;22.21;22.00;20.78;16.11;0.75
18453;SPS30;9356;52.202;20.950;2023-12-22T01:21:37;6.07;5.85;4.76;3.22;25.93;25.89;25.64;24.19;18.72;0.74
18453;SPS30;9356;52.202;20.950;2023-12-22T01:22:43;5.81;5.59;4.49;2.96;23.83;23.79;23.54;22.09;16.94;0.75
18453;SPS30;9356;52.202;20.950;2023-12-22T01:23:51;6.07;5.84;4.69;3.09;24.88;24.84;24.57;23.06;17.68;0.76
18453;SPS30;9356;52.202;20.950;2023-12-22T01:24:55;5.50;5.29;4.26;2.82;22.72;22.69;22.45;21.09;16.20;0.76
18453;SPS30;9356;52.202;20.950;2023-12-22T01:25:58;5.14;4.95;3.99;2.65;21.35;21.31;21.09;19.83;15.24;0.74
18453;SPS30;9356;52.202;20.950;2023-12-22T01:27:06;5.66;5.45;4.43;3.00;24.11;24.07;23.84;22.48;17.39;0.72
18453;SPS30;9356;52.202;20.950;2023-12-22T01:28:19;5.87;5.66;4.61;3.14;25.23;25.19;24.95;23.56;18.25;0.73
18453;SPS30;9356;52.202;20.950;2023-12-22T01:29:24;5.02;4.85;3.98;2.75;22.09;22.05;21.85;20.69;16.11;0.72
18453;SPS30;9356;52.202;20.950;2023-12-22T01:30:33;5.10;4.92;4.06;2.84;22.80;22.77;22.57;21.42;16.73;0.72
18453;SPS30;9356;52.202;20.950;2023-12-22T01:31:35;4.97;4.81;3.97;2.78;22.34;22.31;22.12;21.00;16.42;0.72
18453;SPS30;9356;52.202;20.950;2023-12-22T01:32:43;5.02;4.85;4.00;2.80;22.50;22.47;22.27;21.14;16.52;0.72
18453;SPS30;9356;52.202;20.950;2023-12-22T01:33:47;5.39;5.19;4.20;2.82;22.70;22.66;22.44;21.13;16.30;0.74
18453;SPS30;9356;52.202;20.950;2023-12-22T01:34:49;5.71;5.49;4.39;2.87;23.09;23.06;22.80;21.36;16.33;0.75
18453;SPS30;9356;52.202;20.950;2023-12-22T01:35:59;5.89;5.66;4.54;2.98;23.98;23.94;23.68;22.21;17.01;0.75
18453;SPS30;9356;52.202;20.950;2023-12-22T01:37:08;5.55;5.35;4.33;2.89;23.29;23.25;23.01;21.66;16.69;0.73
18453;SPS30;9356;52.202;20.950;2023-12-22T01:38:14;5.71;5.50;4.46;3.00;24.14;24.10;23.86;22.49;17.36;0.72
18453;SPS30;9356;52.202;20.950;2023-12-22T01:39:19;6.03;5.81;4.74;3.23;25.94;25.90;25.65;24.23;18.78;0.71
18453;SPS30;9356;52.202;20.950;2023-12-22T01:40:31;6.12;5.89;4.77;3.19;25.69;25.65;25.39;23.90;18.43;0.73
18453;SPS30;9356;52.202;20.950;2023-12-22T01:41:34;5.37;5.18;4.22;2.86;23.04;23.01;22.78;21.51;16.65;0.73
18453;SPS30;9356;52.202;20.950;2023-12-22T01:42:39;5.24;5.06;4.15;2.86;22.98;22.94;22.73;21.52;16.74;0.71
18453;SPS30;9356;52.202;20.950;2023-12-22T01:43:45;5.65;5.46;4.49;3.11;24.97;24.94;24.71;23.41;18.24;0.72
18453;SPS30;9356;52.202;20.950;2023-12-22T01:44:55;5.25;5.08;4.21;2.97;23.83;23.80;23.60;22.43;17.57;0.71
18453;SPS30;9356;52.202;20.950;2023-12-22T01:46:03;5.37;5.18;4.26;2.96;23.76;23.73;23.51;22.28;17.37;0.71
18453;SPS30;9356;52.202;20.950;2023-12-22T01:47:17;6.08;5.87;4.78;3.25;26.14;26.10;25.84;24.40;18.90;0.73
18453;SPS30;9356;52.202;20.950;2023-12-22T01:48:25;6.17;5.92;4.72;3.06;24.66;24.61;24.34;22.77;17.36;0.76
18453;SPS30;9356;52.202;20.950;2023-12-22T01:49:35;6.51;6.25;4.96;3.17;25.56;25.51;25.22;23.53;17.86;0.77
18453;SPS30;9356;52.202;20.950;2023-12-22T01:50:43;6.33;6.07;4.79;3.02;24.38;24.33;24.04;22.37;16.90;0.78
18453;SPS30;9356;52.202;20.950;2023-12-22T01:51:50;6.34;6.08;4.80;3.04;24.49;24.44;24.15;22.48;17.00;0.78
18453;SPS30;9356;52.202;20.950;2023-12-22T01:52:54;6.18;5.94;4.72;3.04;24.50;24.45;24.17;22.59;17.18;0.77
18453;SPS30;9356;52.202;20.950;2023-12-22T01:54:04;6.24;5.99;4.78;3.10;24.97;24.93;24.65;23.06;17.58;0.75
18453;SPS30;9356;52.202;20.950;2023-12-22T01:55:07;6.76;6.49;5.15;3.30;26.58;26.54;26.23;24.48;18.58;0.75
18453;SPS30;9356;52.202;20.950;2023-12-22T01:56:19;6.71;6.45;5.12;3.29;26.48;26.44;26.13;24.40;18.54;0.76
18453;SPS30;9356;52.202;20.950;2023-12-22T01:57:27;6.85;6.57;5.15;3.20;25.82;25.77;25.45;23.61;17.73;0.79
18453;SPS30;9356;52.202;20.950;2023-12-22T01:58:39;6.56;6.29;4.94;3.11;25.03;24.99;24.68;22.94;17.29;0.78
18453;SPS30;9356;52.202;20.950;2023-12-22T01:59:53;6.73;6.46;5.11;3.27;26.31;26.27;25.96;24.21;18.36;0.77
18453;SPS30;9356;52.202;20.950;2023-12-22T02:00:59;6.76;6.50;5.16;3.31;26.65;26.60;26.29;24.55;18.64;0.76
18453;SPS30;9356;52.202;20.950;2023-12-22T02:02:07;6.57;6.33;5.09;3.36;27.08;27.03;26.75;25.12;19.28;0.74
18453;SPS30;9356;52.202;20.950;2023-12-22T02:03:11;6.57;6.32;5.06;3.32;26.71;26.67;26.38;24.73;18.93;0.75
18453;SPS30;9356;52.202;20.950;2023-12-22T02:04:21;7.25;6.96;5.54;3.56;28.72;28.66;28.34;26.47;20.14;0.77
18453;SPS30;9356;52.202;20.950;2023-12-22T02:05:25;6.69;6.43;5.11;3.29;26.54;26.49;26.18;24.47;18.62;0.77
18453;SPS30;9356;52.202;20.950;2023-12-22T02:06:31;7.10;6.81;5.39;3.43;27.60;27.55;27.22;25.37;19.21;0.77
18453;SPS30;9356;52.202;20.950;2023-12-22T02:07:38;6.14;5.90;4.67;2.98;24.05;24.00;23.72;22.13;16.78;0.77
18453;SPS30;9356;52.202;20.950;2023-12-22T02:08:43;6.37;6.12;4.88;3.16;25.44;25.40;25.11;23.48;17.90;0.76
18453;SPS30;9356;52.202;20.950;2023-12-22T02:09:49;6.56;6.30;5.02;3.25;26.21;26.16;25.87;24.19;18.44;0.75
18453;SPS30;9356;52.202;20.950;2023-12-22T02:10:53;6.99;6.72;5.35;3.47;27.91;27.86;27.55;25.77;19.64;0.76
18453;SPS30;9356;52.202;20.950;2023-12-22T02:11:59;6.12;5.88;4.68;3.02;24.35;24.31;24.03;22.47;17.10;0.75
18453;SPS30;9356;52.202;20.950;2023-12-22T02:13:03;6.46;6.20;4.95;3.21;25.85;25.80;25.51;23.87;18.20;0.74
18453;SPS30;9356;52.202;20.950;2023-12-22T02:14:08;6.34;6.11;4.97;3.36;27.03;26.99;26.72;25.21;19.50;0.72
18453;SPS30;9356;52.202;20.950;2023-12-22T02:15:11;5.37;5.19;4.27;2.96;23.84;23.80;23.59;22.36;17.44;0.71
18453;SPS30;9356;52.202;20.950;2023-12-22T02:16:18;6.30;6.07;4.91;3.29;26.51;26.47;26.20;24.67;19.03;0.74
18453;SPS30;9356;52.202;20.950;2023-12-22T02:17:34;6.27;6.04;4.88;3.27;26.32;26.28;26.01;24.49;18.88;0.75
18453;SPS30;9356;52.202;20.950;2023-12-22T02:18:52;5.64;5.44;4.43;3.00;24.16;24.12;23.89;22.54;17.45;0.74
18453;SPS30;9356;52.202;20.950;2023-12-22T02:20:01;6.58;6.33;5.12;3.43;27.58;27.53;27.25;25.65;19.77;0.73
18453;SPS30;9356;52.202;20.950;2023-12-22T02:21:06;6.71;6.45;5.16;3.38;27.19;27.15;26.85;25.16;19.25;0.73
18453;SPS30;9356;52.202;20.950;2023-12-22T02:22:10;6.43;6.19;5.01;3.36;27.05;27.00;26.73;25.17;19.41;0.72
18453;SPS30;9356;52.202;20.950;2023-12-22T02:23:21;6.65;6.40;5.13;3.38;27.18;27.14;26.84;25.18;19.29;0.73
18453;SPS30;9356;52.202;20.950;2023-12-22T02:24:24;6.72;6.46;5.19;3.41;27.48;27.43;27.14;25.46;19.51;0.73
18453;SPS30;9356;52.202;20.950;2023-12-22T02:25:28;7.12;6.84;5.45;3.53;28.47;28.42;28.10;26.28;20.03;0.75
18453;SPS30;9356;52.202;20.950;2023-12-22T02:26:36;6.61;6.36;5.12;3.39;27.28;27.23;26.95;25.31;19.44;0.73
18453;SPS30;9356;52.202;20.950;2023-12-22T02:27:50;5.82;5.60;4.53;3.02;24.34;24.30;24.05;22.63;17.43;0.73
18453;SPS30;9356;52.202;20.950;2023-12-22T02:29:02;6.04;5.83;4.80;3.34;26.85;26.81;26.57;25.19;19.66;0.70
18453;SPS30;9356;52.202;20.950;2023-12-22T02:30:22;6.24;6.03;5.01;3.55;28.51;28.47;28.23;26.85;21.07;0.70
18453;SPS30;9356;52.202;20.950;2023-12-22T02:31:32;6.31;6.08;4.97;3.40;27.36;27.32;27.06;25.58;19.86;0.71
18453;SPS30;9356;52.202;20.950;2023-12-22T02:32:51;6.46;6.23;5.10;3.50;28.18;28.14;27.88;26.37;20.50;0.72
18453;SPS30;9356;52.202;20.950;2023-12-22T02:33:59;6.50;6.26;5.08;3.42;27.48;27.44;27.17;25.60;19.77;0.73
18453;SPS30;9356;52.202;20.950;2023-12-22T02:35:07;7.16;6.89;5.53;3.65;29.39;29.34;29.03;27.26;20.91;0.75
18453;SPS30;9356;52.202;20.950;2023-12-22T02:36:17;6.75;6.49;5.19;3.38;27.20;27.15;26.85;25.14;19.20;0.76
18453;SPS30;9356;52.202;20.950;2023-12-22T02:37:23;6.81;6.55;5.21;3.37;27.17;27.12;26.82;25.08;19.10;0.77
18453;SPS30;9356;52.202;20.950;2023-12-22T02:38:35;6.56;6.29;4.97;3.15;25.36;25.32;25.01;23.29;17.61;0.78
18453;SPS30;9356;52.202;20.950;2023-12-22T02:39:42;7.55;7.25;5.75;3.69;29.70;29.65;29.31;27.35;20.77;0.79
18453;SPS30;9356;52.202;20.950;2023-12-22T02:40:51;7.54;7.23;5.70;3.60;28.99;28.93;28.58;26.59;20.08;0.79
18453;SPS30;9356;52.202;20.950;2023-12-22T02:41:55;6.92;6.64;5.25;3.33;26.87;26.82;26.50;24.68;18.68;0.78
18453;SPS30;9356;52.202;20.950;2023-12-22T02:43:07;7.35;7.06;5.63;3.66;29.46;29.41;29.08;27.22;20.76;0.76
18453;SPS30;9356;52.202;20.950;2023-12-22T02:44:11;7.02;6.77;5.50;3.71;29.84;29.79;29.50;27.82;21.50;0.74
18453;SPS30;9356;52.202;20.950;2023-12-22T02:45:23;6.46;6.23;5.06;3.43;27.58;27.54;27.27;25.72;19.90;0.74
18453;SPS30;9356;52.202;20.950;2023-12-22T02:46:29;6.50;6.28;5.17;3.59;28.86;28.82;28.56;27.08;21.12;0.71
18453;SPS30;9356;52.202;20.950;2023-12-22T02:47:35;6.49;6.27;5.18;3.63;29.19;29.15;28.90;27.44;21.46;0.72
18453;SPS30;9356;52.202;20.950;2023-12-22T02:48:37;6.53;6.31;5.21;3.63;29.20;29.16;28.90;27.42;21.41;0.73
18453;SPS30;9356;52.202;20.950;2023-12-22T02:49:43;6.03;5.83;4.86;3.45;27.72;27.68;27.45;26.13;20.52;0.70
18453;SPS30;9356;52.202;20.950;2023-12-22T02:50:49;6.14;5.94;4.96;3.55;28.52;28.48;28.25;26.92;21.19;0.70
18453;SPS30;9356;52.202;20.950;2023-12-22T02:51:56;5.72;5.55;4.68;3.40;27.29;27.26;27.05;25.86;20.44;0.68
18453;SPS30;9356;52.202;20.950;2023-12-22T02:52:59;6.70;6.48;5.39;3.81;30.63;30.59;30.33;28.85;22.64;0.72
18453;SPS30;9356;52.202;20.950;2023-12-22T02:54:05;6.71;6.48;5.31;3.66;29.41;29.36;29.09;27.53;21.42;0.74
18453;SPS30;9356;52.202;20.950;2023-12-22T02:55:11;6.81;6.58;5.42;3.78;30.40;30.36;30.09;28.54;22.29;0.73
18453;SPS30;9356;52.202;20.950;2023-12-22T02:56:18;6.06;5.86;4.85;3.40;27.33;27.29;27.06;25.69;20.10;0.72
18453;SPS30;9356;52.202;20.950;2023-12-22T02:57:24;6.63;6.40;5.25;3.63;29.17;29.13;28.87;27.33;21.28;0.72
18453;SPS30;9356;52.202;20.950;2023-12-22T02:58:36;6.49;6.27;5.14;3.55;28.56;28.52;28.26;26.76;20.84;0.72
18453;SPS30;9356;52.202;20.950;2023-12-22T02:59:44;6.70;6.47;5.32;3.69;29.65;29.60;29.34;27.80;21.67;0.71
18453;SPS30;9356;52.202;20.950;2023-12-22T03:00:55;6.09;5.88;4.82;3.33;26.76;26.72;26.48;25.07;19.51;0.71
18453;SPS30;9356;52.202;20.950;2023-12-22T03:01:59;6.15;5.93;4.85;3.32;26.68;26.64;26.39;24.95;19.37;0.72
18453;SPS30;9356;52.202;20.950;2023-12-22T03:03:02;5.85;5.65;4.64;3.21;25.82;25.78;25.55;24.20;18.85;0.72
18453;SPS30;9356;52.202;20.950;2023-12-22T03:04:09;5.95;5.75;4.73;3.27;26.31;26.27;26.04;24.67;19.22;0.72
18453;SPS30;9356;52.202;20.950;2023-12-22T03:05:15;6.13;5.93;4.93;3.50;28.11;28.07;27.84;26.49;20.79;0.71
18453;SPS30;9356;52.202;20.950;2023-12-22T03:06:20;5.46;5.29;4.45;3.23;25.95;25.91;25.72;24.57;19.42;0.70
18453;SPS30;9356;52.202;20.950;2023-12-22T03:07:27;5.87;5.69;4.80;3.49;28.01;27.98;27.76;26.54;20.99;0.70
18453;SPS30;9356;52.202;20.950;2023-12-22T03:08:31;5.25;5.10;4.30;3.14;25.18;25.15;24.96;23.87;18.89;0.70
18453;SPS30;9356;52.202;20.950;2023-12-22T03:09:43;5.12;4.95;4.14;2.96;23.82;23.79;23.60;22.49;17.71;0.72
18453;SPS30;9356;52.202;20.950;2023-12-22T03:10:51;5.54;5.37;4.54;3.32;26.63;26.60;26.40;25.26;20.00;0.70
18453;SPS30;9356;52.202;20.950;2023-12-22T03:11:54;5.54;5.38;4.56;3.36;26.96;26.93;26.74;25.61;20.32;0.70
18453;SPS30;9356;52.202;20.950;2023-12-22T03:13:05;4.94;4.78;4.02;2.91;23.34;23.31;23.13;22.08;17.43;0.72
18453;SPS30;9356;52.202;20.950;2023-12-22T03:14:11;5.27;5.10;4.27;3.06;24.61;24.57;24.38;23.25;18.31;0.72
18453;SPS30;9356;52.202;20.950;2023-12-22T03:15:18;5.44;5.28;4.45;3.25;26.06;26.03;25.83;24.70;19.55;0.70
18453;SPS30;9356;52.202;20.950;2023-12-22T03:16:22;5.50;5.34;4.53;3.34;26.80;26.77;26.58;25.47;20.22;0.69
18453;SPS30;9356;52.202;20.950;2023-12-22T03:17:26;5.77;5.60;4.74;3.47;27.89;27.86;27.66;26.47;20.98;0.68
18453;SPS30;9356;52.202;20.950;2023-12-22T03:18:30;6.09;5.91;5.00;3.67;29.48;29.44;29.23;27.98;22.18;0.69
18453;SPS30;9356;52.202;20.950;2023-12-22T03:19:34;5.59;5.42;4.57;3.34;26.80;26.77;26.57;25.41;20.12;0.69
18453;SPS30;9356;52.202;20.950;2023-12-22T03:20:37;5.63;5.46;4.63;3.41;27.39;27.35;27.16;26.01;20.64;0.68
18453;SPS30;9356;52.202;20.950;2023-12-22T03:21:42;5.54;5.38;4.56;3.35;26.90;26.87;26.68;25.54;20.26;0.68
18453;SPS30;9356;52.202;20.950;2023-12-22T03:22:45;5.74;5.58;4.75;3.53;28.32;28.29;28.09;26.95;21.43;0.68
18453;SPS30;9356;52.202;20.950;2023-12-22T03:23:51;5.54;5.38;4.59;3.41;27.39;27.36;27.17;26.07;20.75;0.69
18453;SPS30;9356;52.202;20.950;2023-12-22T03:24:59;5.62;5.46;4.65;3.45;27.68;27.65;27.46;26.33;20.94;0.68
18453;SPS30;9356;52.202;20.950;2023-12-22T03:26:03;5.80;5.64;4.83;3.62;29.05;29.02;28.83;27.70;22.09;0.67
18453;SPS30;9356;52.202;20.950;2023-12-22T03:27:09;5.54;5.39;4.64;3.50;28.10;28.07;27.89;26.83;21.44;0.68
18453;SPS30;9356;52.202;20.950;2023-12-22T03:28:18;5.59;5.43;4.61;3.41;27.36;27.33;27.13;26.00;20.65;0.70
18453;SPS30;9356;52.202;20.950;2023-12-22T03:29:21;5.61;5.45;4.62;3.41;27.36;27.32;27.13;25.99;20.63;0.70
18453;SPS30;9356;52.202;20.950;2023-12-22T03:30:27;5.70;5.52;4.63;3.34;26.83;26.79;26.58;25.37;20.01;0.72
18453;SPS30;9356;52.202;20.950;2023-12-22T03:32:17;5.59;5.41;4.53;3.26;26.15;26.12;25.91;24.71;19.47;0.73
18453;SPS30;9356;52.202;20.950;2023-12-22T03:33:21;5.86;5.68;4.79;3.49;27.98;27.95;27.74;26.52;20.98;0.71
18453;SPS30;9356;52.202;20.950;2023-12-22T03:34:24;5.83;5.66;4.83;3.59;28.79;28.75;28.56;27.39;21.79;0.70
18453;SPS30;9356;52.202;20.950;2023-12-22T03:35:27;5.87;5.70;4.83;3.56;28.56;28.52;28.32;27.12;21.52;0.72
18453;SPS30;9356;52.202;20.950;2023-12-22T03:36:30;6.49;6.29;5.32;3.89;31.21;31.18;30.95;29.61;23.45;0.72
18453;SPS30;9356;52.202;20.950;2023-12-22T03:37:35;5.99;5.81;4.92;3.61;28.95;28.91;28.70;27.47;21.77;0.70
18453;SPS30;9356;52.202;20.950;2023-12-22T03:38:40;5.63;5.47;4.67;3.47;27.85;27.81;27.62;26.50;21.09;0.70
18453;SPS30;9356;52.202;20.950;2023-12-22T03:39:44;5.65;5.49;4.69;3.51;28.15;28.12;27.93;26.82;21.37;0.70
18453;SPS30;9356;52.202;20.950;2023-12-22T03:40:56;5.31;5.16;4.41;3.29;26.43;26.40;26.23;25.18;20.07;0.70
18453;SPS30;9356;52.202;20.950;2023-12-22T03:42:03;5.64;5.47;4.63;3.41;27.34;27.31;27.11;25.96;20.59;0.71
18453;SPS30;9356;52.202;20.950;2023-12-22T03:43:07;6.12;5.94;5.03;3.68;29.57;29.53;29.32;28.06;22.24;0.71
18453;SPS30;9356;52.202;20.950;2023-12-22T03:44:12;6.02;5.86;5.02;3.78;30.31;30.28;30.09;28.92;23.09;0.69
18453;SPS30;9356;52.202;20.950;2023-12-22T03:45:33;5.16;5.02;4.33;3.30;26.44;26.41;26.25;25.28;20.24;0.69
18453;SPS30;9356;52.202;20.950;2023-12-22T03:49:48;5.71;5.53;4.63;3.33;26.73;26.70;26.48;25.26;19.91;0.70
18453;SPS30;9356;52.202;20.950;2023-12-22T03:50:57;6.27;6.06;5.00;3.50;28.10;28.06;27.82;26.40;20.63;0.72
18453;SPS30;9356;52.202;20.950;2023-12-22T03:52:05;6.18;5.98;4.98;3.53;28.39;28.35;28.12;26.76;21.01;0.71
18453;SPS30;9356;52.202;20.950;2023-12-22T03:53:13;6.15;5.96;5.00;3.61;29.02;28.98;28.76;27.45;21.67;0.71
18453;SPS30;9356;52.202;20.950;2023-12-22T03:55:37;5.98;5.80;4.87;3.53;28.35;28.32;28.10;26.84;21.20;0.70
18453;SPS30;9356;52.202;20.950;2023-12-22T03:56:47;6.17;5.97;4.97;3.52;28.32;28.29;28.05;26.69;20.96;0.72
18453;SPS30;9356;52.202;20.950;2023-12-22T04:00:02;6.05;5.85;4.84;3.41;27.39;27.35;27.12;25.77;20.18;0.71
18453;SPS30;9356;52.202;20.950;2023-12-22T04:01:09;5.84;5.66;4.74;3.41;27.38;27.35;27.13;25.89;20.41;0.70
18453;SPS30;9356;52.202;20.950;2023-12-22T04:03:29;5.62;5.45;4.57;3.30;26.54;26.51;26.30;25.11;19.82;0.70
18453;SPS30;9356;52.202;20.950;2023-12-22T04:05:56;6.26;6.06;5.03;3.56;28.64;28.61;28.37;26.98;21.17;0.70
18453;SPS30;9356;52.202;20.950;2023-12-22T04:07:07;6.42;6.21;5.13;3.59;28.89;28.85;28.60;27.16;21.24;0.71
18453;SPS30;9356;52.202;20.950;2023-12-22T04:08:12;6.34;6.14;5.15;3.70;29.71;29.67;29.44;28.08;22.13;0.70
18453;SPS30;9356;52.202;20.950;2023-12-22T04:09:20;6.78;6.55;5.44;3.84;30.87;30.83;30.57;29.06;22.78;0.71
18453;SPS30;9356;52.202;20.950;2023-12-22T04:12:26;6.55;6.33;5.20;3.60;28.97;28.93;28.67;27.16;21.17;0.72
18453;SPS30;9356;52.202;20.950;2023-12-22T04:13:34;6.12;5.92;4.90;3.44;27.63;27.59;27.35;25.98;20.33;0.71
18453;SPS30;9356;52.202;20.950;2023-12-22T04:14:48;6.85;6.62;5.44;3.78;30.36;30.31;30.04;28.47;22.20;0.72
18453;SPS30;9356;52.202;20.950;2023-12-22T04:16:03;6.19;5.97;4.89;3.36;27.04;27.00;26.74;25.30;19.67;0.73
18453;SPS30;9356;52.202;20.950;2023-12-22T04:21:39;5.68;5.53;4.75;3.58;28.69;28.66;28.47;27.38;21.87;0.66
18453;SPS30;9356;52.202;20.950;2023-12-22T04:26:12;5.50;5.36;4.67;3.61;28.96;28.93;28.76;27.78;22.34;0.69
18453;SPS30;9356;52.202;20.950;2023-12-22T04:27:31;6.04;5.88;5.07;3.86;30.96;30.93;30.74;29.60;23.71;0.69
18453;SPS30;9356;52.202;20.950;2023-12-22T04:29:07;6.13;5.97;5.17;3.95;31.67;31.64;31.45;30.31;24.30;0.68
18453;SPS30;9356;52.202;20.950;2023-12-22T04:33:40;5.52;5.37;4.63;3.51;28.14;28.11;27.94;26.89;21.51;0.69
18453;SPS30;9356;52.202;20.950;2023-12-22T04:34:52;6.46;6.27;5.30;3.89;31.21;31.18;30.95;29.62;23.48;0.71